sensor_id;sensor_type;location;lat;lon;timestamp;P1;durP1;ratioP1;P2;durP2;ratioP2
56593;SDS011;42474;51.660;5.824;2023-05-20T11:50:09;3;;;2.45;;
56593;SDS011;42474;51.660;5.824;2023-05-20T13:14:09;4.81;;;2.07;;
56593;SDS011;42474;51.660;5.824;2023-05-20T13:18:08;2.99;;;1.73;;
56593;SDS011;42474;51.660;5.824;2023-05-20T13:22:08;2.71;;;1.77;;
56593;SDS011;42474;51.660;5.824;2023-05-20T13:26:08;3;;;1.63;;
56593;SDS011;42474;51.660;5.824;2023-05-20T13:30:09;2.85;;;1.69;;
56593;SDS011;42474;51.660;5.824;2023-05-20T13:38:08;2.02;;;1.68;;
56593;SDS011;42474;51.660;5.824;2023-05-20T13:42:09;2.84;;;2.09;;
56593;SDS011;42474;51.660;5.824;2023-05-20T13:46:08;1.76;;;1.5;;
56593;SDS011;42474;51.660;5.824;2023-05-20T13:50:09;2.87;;;1.87;;
56593;SDS011;42474;51.660;5.824;2023-05-20T14:10:08;2.51;;;1.56;;
56593;SDS011;42474;51.660;5.824;2023-05-20T14:14:08;3.17;;;1.97;;
56593;SDS011;42474;51.660;5.824;2023-05-20T14:18:08;2.63;;;1.73;;
56593;SDS011;42474;51.660;5.824;2023-05-20T14:22:08;2.44;;;1.75;;
56593;SDS011;42474;51.660;5.824;2023-05-20T14:26:08;3.02;;;1.83;;
56593;SDS011;42474;51.660;5.824;2023-05-20T14:30:09;2.09;;;1.59;;
56593;SDS011;42474;51.660;5.824;2023-05-20T14:34:08;2.81;;;1.72;;
56593;SDS011;42474;51.660;5.824;2023-05-20T14:38:08;2.15;;;1.68;;
56593;SDS011;42474;51.660;5.824;2023-05-20T14:42:08;2.79;;;1.61;;
56593;SDS011;42474;51.660;5.824;2023-05-20T14:46:08;2.09;;;1.71;;
56593;SDS011;42474;51.660;5.824;2023-05-20T15:02:08;2.86;;;1.83;;
56593;SDS011;42474;51.660;5.824;2023-05-20T15:06:08;2.53;;;1.67;;
56593;SDS011;42474;51.660;5.824;2023-05-20T15:10:08;3.63;;;2.26;;
56593;SDS011;42474;51.660;5.824;2023-05-20T15:14:08;2.41;;;1.75;;
56593;SDS011;42474;51.660;5.824;2023-05-20T15:18:08;3.17;;;2.25;;
56593;SDS011;42474;51.660;5.824;2023-05-20T15:22:08;2.32;;;1.58;;
56593;SDS011;42474;51.660;5.824;2023-05-20T15:26:08;3.07;;;1.65;;
56593;SDS011;42474;51.660;5.824;2023-05-20T15:30:09;5.2;;;3.33;;
56593;SDS011;42474;51.660;5.824;2023-05-20T15:34:08;5.43;;;1.91;;
56593;SDS011;42474;51.660;5.824;2023-05-20T15:38:08;2.57;;;1.93;;
56593;SDS011;42474;51.660;5.824;2023-05-20T15:42:08;3.82;;;1.94;;
56593;SDS011;42474;51.660;5.824;2023-05-20T15:46:09;9.48;;;1.79;;
56593;SDS011;42474;51.660;5.824;2023-05-20T15:50:09;2.32;;;1.19;;
56593;SDS011;42474;51.660;5.824;2023-05-20T15:54:08;2.53;;;1.42;;
56593;SDS011;42474;51.660;5.824;2023-05-20T15:58:09;1.43;;;1.09;;
56593;SDS011;42474;51.660;5.824;2023-05-20T16:02:09;4.16;;;1.24;;
56593;SDS011;42474;51.660;5.824;2023-05-20T16:06:09;3.29;;;1.29;;
56593;SDS011;42474;51.660;5.824;2023-05-20T16:10:09;2.74;;;1.28;;
56593;SDS011;42474;51.660;5.824;2023-05-20T16:14:08;3.85;;;1.43;;
56593;SDS011;42474;51.660;5.824;2023-05-20T16:18:08;2.36;;;1.18;;
56593;SDS011;42474;51.660;5.824;2023-05-20T16:22:08;2.59;;;1.23;;
56593;SDS011;42474;51.660;5.824;2023-05-20T16:26:08;2.52;;;1.45;;
56593;SDS011;42474;51.660;5.824;2023-05-20T16:30:10;1.58;;;1.03;;
56593;SDS011;42474;51.660;5.824;2023-05-20T16:42:09;1.72;;;1.28;;
56593;SDS011;42474;51.660;5.824;2023-05-20T16:46:08;1.91;;;1.22;;
56593;SDS011;42474;51.660;5.824;2023-05-20T16:50:09;1.71;;;1.38;;
56593;SDS011;42474;51.660;5.824;2023-05-20T16:54:08;1.76;;;1.39;;
56593;SDS011;42474;51.660;5.824;2023-05-20T16:58:08;1.79;;;1.27;;
56593;SDS011;42474;51.660;5.824;2023-05-20T17:02:08;1.29;;;1.17;;
56593;SDS011;42474;51.660;5.824;2023-05-20T17:06:08;2.76;;;1.37;;
56593;SDS011;42474;51.660;5.824;2023-05-20T17:10:08;2.3;;;1.26;;
56593;SDS011;42474;51.660;5.824;2023-05-20T17:14:08;1.7;;;1.26;;
56593;SDS011;42474;51.660;5.824;2023-05-20T17:18:08;1.72;;;1.06;;
56593;SDS011;42474;51.660;5.824;2023-05-20T17:22:09;1.69;;;1.09;;
56593;SDS011;42474;51.660;5.824;2023-05-20T17:26:08;1.79;;;1.31;;
56593;SDS011;42474;51.660;5.824;2023-05-20T17:30:09;1.73;;;1.17;;
56593;SDS011;42474;51.660;5.824;2023-05-20T17:34:08;3.42;;;1.42;;
56593;SDS011;42474;51.660;5.824;2023-05-20T17:38:08;2.56;;;1.5;;
56593;SDS011;42474;51.660;5.824;2023-05-20T17:42:09;1.61;;;1.14;;
56593;SDS011;42474;51.660;5.824;2023-05-20T17:46:08;2.06;;;1.27;;
56593;SDS011;42474;51.660;5.824;2023-05-20T17:50:08;2.53;;;1.27;;
56593;SDS011;42474;51.660;5.824;2023-05-20T17:54:08;1.65;;;1.22;;
56593;SDS011;42474;51.660;5.824;2023-05-20T17:58:08;3.46;;;1.47;;
56593;SDS011;42474;51.660;5.824;2023-05-20T18:02:08;2.33;;;1.36;;
56593;SDS011;42474;51.660;5.824;2023-05-20T18:06:08;1.73;;;1.14;;
56593;SDS011;42474;51.660;5.824;2023-05-20T18:10:09;2.33;;;1.31;;
56593;SDS011;42474;51.660;5.824;2023-05-20T18:14:08;2.2;;;1.27;;
56593;SDS011;42474;51.660;5.824;2023-05-20T18:22:08;1.91;;;1.08;;
56593;SDS011;42474;51.660;5.824;2023-05-20T18:26:08;1.97;;;1.37;;
56593;SDS011;42474;51.660;5.824;2023-05-20T18:30:09;2.56;;;1.38;;
56593;SDS011;42474;51.660;5.824;2023-05-20T18:34:09;1.56;;;1.16;;
56593;SDS011;42474;51.660;5.824;2023-05-20T18:38:08;2.86;;;1.22;;
56593;SDS011;42474;51.660;5.824;2023-05-20T18:42:08;1.97;;;1.37;;
56593;SDS011;42474;51.660;5.824;2023-05-20T18:46:08;2.42;;;1.27;;
56593;SDS011;42474;51.660;5.824;2023-05-20T18:50:09;4.49;;;1.44;;
56593;SDS011;42474;51.660;5.824;2023-05-20T18:54:08;3.37;;;1.54;;
56593;SDS011;42474;51.660;5.824;2023-05-20T18:58:08;2.01;;;1.39;;
56593;SDS011;42474;51.660;5.824;2023-05-20T19:02:08;2.28;;;1.43;;
56593;SDS011;42474;51.660;5.824;2023-05-20T19:06:08;1.88;;;1.26;;
56593;SDS011;42474;51.660;5.824;2023-05-20T19:10:08;1.95;;;1.46;;
56593;SDS011;42474;51.660;5.824;2023-05-20T19:14:08;3.03;;;1.47;;
56593;SDS011;42474;51.660;5.824;2023-05-20T19:18:08;3.1;;;1.8;;
56593;SDS011;42474;51.660;5.824;2023-05-20T19:22:08;2.15;;;1.55;;
56593;SDS011;42474;51.660;5.824;2023-05-20T19:26:08;3.45;;;1.3;;
56593;SDS011;42474;51.660;5.824;2023-05-20T19:30:09;1.78;;;1.19;;
56593;SDS011;42474;51.660;5.824;2023-05-20T19:34:08;2.26;;;1.56;;
56593;SDS011;42474;51.660;5.824;2023-05-20T19:38:08;3.75;;;1.52;;
56593;SDS011;42474;51.660;5.824;2023-05-20T19:42:08;2.2;;;1.55;;
56593;SDS011;42474;51.660;5.824;2023-05-20T19:46:08;2.74;;;1.5;;
56593;SDS011;42474;51.660;5.824;2023-05-20T19:50:09;2.37;;;1.52;;
56593;SDS011;42474;51.660;5.824;2023-05-20T19:54:08;1.92;;;1.57;;
56593;SDS011;42474;51.660;5.824;2023-05-20T19:58:08;3.36;;;1.74;;
56593;SDS011;42474;51.660;5.824;2023-05-20T20:02:08;2.36;;;1.64;;
56593;SDS011;42474;51.660;5.824;2023-05-20T20:06:09;3.04;;;1.84;;
56593;SDS011;42474;51.660;5.824;2023-05-20T20:10:09;3.35;;;1.81;;
56593;SDS011;42474;51.660;5.824;2023-05-20T20:14:08;1.65;;;1.5;;
56593;SDS011;42474;51.660;5.824;2023-05-20T20:18:08;3.74;;;1.78;;
56593;SDS011;42474;51.660;5.824;2023-05-20T20:22:08;3.59;;;1.73;;
56593;SDS011;42474;51.660;5.824;2023-05-20T20:26:08;3.34;;;1.84;;
56593;SDS011;42474;51.660;5.824;2023-05-20T20:30:09;2.08;;;1.66;;
56593;SDS011;42474;51.660;5.824;2023-05-20T20:34:08;2.31;;;1.62;;
56593;SDS011;42474;51.660;5.824;2023-05-20T20:38:08;2.71;;;1.76;;
56593;SDS011;42474;51.660;5.824;2023-05-20T20:42:08;2.36;;;1.84;;
56593;SDS011;42474;51.660;5.824;2023-05-20T20:46:08;3.38;;;1.88;;
56593;SDS011;42474;51.660;5.824;2023-05-20T20:54:08;2.7;;;1.83;;
56593;SDS011;42474;51.660;5.824;2023-05-20T20:58:08;2.74;;;2.21;;
56593;SDS011;42474;51.660;5.824;2023-05-20T21:02:08;2.37;;;1.99;;
56593;SDS011;42474;51.660;5.824;2023-05-20T21:06:08;2.94;;;2.25;;
56593;SDS011;42474;51.660;5.824;2023-05-20T21:10:09;3.41;;;2.33;;
56593;SDS011;42474;51.660;5.824;2023-05-20T21:14:09;3.56;;;2.11;;
56593;SDS011;42474;51.660;5.824;2023-05-20T21:18:08;3.13;;;2.15;;
56593;SDS011;42474;51.660;5.824;2023-05-20T21:22:08;3.36;;;2.45;;
56593;SDS011;42474;51.660;5.824;2023-05-20T21:26:08;3.34;;;2.18;;
56593;SDS011;42474;51.660;5.824;2023-05-20T21:30:09;4.84;;;2.37;;
56593;SDS011;42474;51.660;5.824;2023-05-20T21:34:08;2.75;;;2.26;;
56593;SDS011;42474;51.660;5.824;2023-05-20T21:38:08;2.77;;;2.31;;
56593;SDS011;42474;51.660;5.824;2023-05-20T21:42:08;3.32;;;2.42;;
56593;SDS011;42474;51.660;5.824;2023-05-20T21:46:08;5.8;;;2.38;;
56593;SDS011;42474;51.660;5.824;2023-05-20T21:50:09;4.11;;;2.85;;
56593;SDS011;42474;51.660;5.824;2023-05-20T21:54:08;3.52;;;2.47;;
56593;SDS011;42474;51.660;5.824;2023-05-20T21:58:08;2.94;;;2.45;;
56593;SDS011;42474;51.660;5.824;2023-05-20T22:02:08;3.35;;;2.55;;
56593;SDS011;42474;51.660;5.824;2023-05-20T22:06:08;3.65;;;2.85;;
56593;SDS011;42474;51.660;5.824;2023-05-20T22:10:09;3.11;;;2.62;;
56593;SDS011;42474;51.660;5.824;2023-05-20T22:14:08;3.36;;;2.81;;
56593;SDS011;42474;51.660;5.824;2023-05-20T22:18:08;4.04;;;2.77;;
56593;SDS011;42474;51.660;5.824;2023-05-20T22:22:09;4.41;;;2.88;;
56593;SDS011;42474;51.660;5.824;2023-05-20T22:26:08;4.13;;;2.91;;
56593;SDS011;42474;51.660;5.824;2023-05-20T22:30:09;3.32;;;2.94;;
56593;SDS011;42474;51.660;5.824;2023-05-20T22:34:08;3.52;;;2.86;;
56593;SDS011;42474;51.660;5.824;2023-05-20T22:38:08;3.43;;;3.08;;
56593;SDS011;42474;51.660;5.824;2023-05-20T22:42:08;4.78;;;3.13;;
56593;SDS011;42474;51.660;5.824;2023-05-20T22:46:08;5.69;;;3.58;;
56593;SDS011;42474;51.660;5.824;2023-05-20T22:50:08;3.47;;;3.11;;
56593;SDS011;42474;51.660;5.824;2023-05-20T22:54:08;4.12;;;3.09;;
56593;SDS011;42474;51.660;5.824;2023-05-20T22:58:08;4.72;;;3.51;;
56593;SDS011;42474;51.660;5.824;2023-05-20T23:02:08;4.29;;;3.56;;
56593;SDS011;42474;51.660;5.824;2023-05-20T23:06:08;3.84;;;3.46;;
56593;SDS011;42474;51.660;5.824;2023-05-20T23:10:09;3.82;;;3.23;;
56593;SDS011;42474;51.660;5.824;2023-05-20T23:14:08;3.83;;;3.13;;
56593;SDS011;42474;51.660;5.824;2023-05-20T23:18:08;4.57;;;3.55;;
56593;SDS011;42474;51.660;5.824;2023-05-20T23:22:08;4.23;;;3.39;;
56593;SDS011;42474;51.660;5.824;2023-05-20T23:26:08;3.73;;;3.09;;
56593;SDS011;42474;51.660;5.824;2023-05-20T23:30:08;7.02;;;3.2;;
56593;SDS011;42474;51.660;5.824;2023-05-20T23:34:08;4.9;;;3.13;;
56593;SDS011;42474;51.660;5.824;2023-05-20T23:38:08;4.49;;;3.68;;
56593;SDS011;42474;51.660;5.824;2023-05-20T23:42:08;4.66;;;3.66;;
56593;SDS011;42474;51.660;5.824;2023-05-20T23:46:09;5.25;;;3.58;;
56593;SDS011;42474;51.660;5.824;2023-05-20T23:50:09;4.98;;;4.3;;
56593;SDS011;42474;51.660;5.824;2023-05-20T23:54:08;4.97;;;3.97;;
56593;SDS011;42474;51.660;5.824;2023-05-20T23:58:08;8.22;;;4.1;;
